Time;durP1;ratioP1;P1;durP2;ratioP2;P2;SDS_P1;SDS_P2;PMS_P1;PMS_P2;Temp;Humidity;BMP_temperature;BMP_pressure;BME280_temperature;BME280_humidity;BME280_pressure;Samples;Min_cycle;Max_cycle;Signal;HPM_P1;HPM_P2
2023/10/13 00:02:01;;;;;;;10.90;4.70;;;19.60;62.00;;;;;;4999679;28;20428;-76
2023/10/13 00:04:27;;;;;;;9.00;5.20;;;19.70;61.60;;;;;;5001257;28;20459;-76
2023/10/13 00:06:53;;;;;;;10.33;4.90;;;19.70;61.50;;;;;;4994421;28;20593;-74
2023/10/13 00:09:24;;;;;;;10.37;5.03;;;19.70;61.20;;;;;;4998675;28;20422;-77
2023/10/13 00:11:52;;;;;;;13.37;5.63;;;19.80;61.20;;;;;;4998083;28;20439;-78
2023/10/13 00:14:18;;;;;;;9.30;4.43;;;19.70;60.70;;;;;;5005059;28;20485;-78
2023/10/13 00:19:44;;;;;;;7.03;4.60;;;19.70;61.00;;;;;;5000773;28;20589;-77
2023/10/13 00:22:10;;;;;;;8.40;4.53;;;19.80;60.00;;;;;;5005286;28;20775;-78
2023/10/13 00:24:45;;;;;;;8.57;4.80;;;19.80;59.70;;;;;;5009022;28;20421;-78
2023/10/13 00:27:33;;;;;;;10.77;4.50;;;19.90;59.70;;;;;;5009461;28;20473;-77
2023/10/13 00:32:51;;;;;;;10.83;5.20;;;19.90;59.70;;;;;;5005127;28;20420;-76
2023/10/13 00:35:29;;;;;;;9.00;4.57;;;19.80;60.10;;;;;;5010536;28;20520;-77
2023/10/13 00:38:12;;;;;;;10.30;4.90;;;19.80;60.70;;;;;;5009511;28;20432;-75
2023/10/13 00:45:55;;;;;;;14.37;5.20;;;19.40;61.60;;;;;;4998933;28;20474;-76
2023/10/13 00:48:32;;;;;;;11.07;4.53;;;19.30;61.70;;;;;;5008183;28;20506;-75
2023/10/13 00:51:02;;;;;;;9.03;4.77;;;19.30;61.50;;;;;;5001176;28;20429;-75
2023/10/13 00:53:33;;;;;;;12.63;4.90;;;19.20;61.60;;;;;;5006720;28;20425;-75
2023/10/13 00:56:06;;;;;;;10.43;5.30;;;19.20;61.70;;;;;;5010005;28;20461;-76
2023/10/13 00:58:34;;;;;;;9.07;4.90;;;19.20;61.70;;;;;;5001276;28;20421;-74
2023/10/13 01:01:18;;;;;;;10.73;5.50;;;19.20;61.60;;;;;;5007715;28;20462;-75
2023/10/13 01:03:48;;;;;;;13.43;4.97;;;19.30;61.60;;;;;;5001429;28;20418;-76
2023/10/13 01:06:16;;;;;;;10.33;4.23;;;19.20;61.60;;;;;;5008052;28;20530;-76
2023/10/13 01:08:44;;;;;;;8.63;4.80;;;19.20;61.70;;;;;;5018187;28;20471;-78
2023/10/13 01:11:10;;;;;;;7.50;4.50;;;19.10;62.20;;;;;;5007100;28;20459;-75
2023/10/13 01:13:36;;;;;;;10.20;4.60;;;19.00;62.30;;;;;;5003907;28;21158;-76
2023/10/13 01:16:02;;;;;;;7.90;4.43;;;19.00;62.50;;;;;;5001680;28;20468;-76
2023/10/13 01:18:28;;;;;;;10.40;4.80;;;18.90;62.60;;;;;;5004469;28;20425;-76
2023/10/13 01:20:58;;;;;;;10.27;4.50;;;18.90;62.60;;;;;;5003407;28;20468;-75
2023/10/13 01:23:28;;;;;;;14.30;6.23;;;18.90;62.50;;;;;;5013570;28;20182;-76
2023/10/13 01:25:56;;;;;;;13.87;5.97;;;18.90;62.50;;;;;;5006782;28;20464;-76
2023/10/13 01:28:23;;;;;;;9.57;4.60;;;18.90;62.50;;;;;;5006000;28;22103;-76
2023/10/13 01:30:53;;;;;;;8.80;4.27;;;18.90;62.90;;;;;;5006416;28;20435;-76
2023/10/13 01:33:28;;;;;;;8.30;4.90;;;18.80;63.10;;;;;;5010459;28;20433;-76
2023/10/13 01:35:58;;;;;;;7.60;4.50;;;18.70;63.10;;;;;;5004162;28;20478;-75
2023/10/13 01:38:28;;;;;;;8.23;4.73;;;18.70;63.20;;;;;;5006909;28;20418;-75
2023/10/13 01:40:56;;;;;;;10.90;4.77;;;18.60;63.40;;;;;;5000975;28;20468;-75
2023/10/13 01:43:22;;;;;;;15.83;5.10;;;18.60;63.20;;;;;;5014048;28;20478;-76
2023/10/13 01:45:49;;;;;;;10.30;4.60;;;18.60;63.20;;;;;;5003359;28;20514;-75
2023/10/13 01:48:16;;;;;;;10.20;5.00;;;18.60;63.20;;;;;;5025453;28;20427;-76
2023/10/13 01:50:47;;;;;;;8.00;4.30;;;18.60;63.40;;;;;;5000808;28;20891;-74
2023/10/13 01:53:14;;;;;;;10.70;5.43;;;18.60;63.40;;;;;;5011738;28;20421;-75
2023/10/13 01:55:42;;;;;;;12.20;4.70;;;18.50;63.50;;;;;;5011363;28;20496;-74
2023/10/13 01:58:14;;;;;;;11.10;5.17;;;18.50;63.70;;;;;;5005355;28;20420;-75
2023/10/13 02:00:44;;;;;;;14.60;5.03;;;18.50;63.70;;;;;;5006535;28;20561;-76
2023/10/13 02:03:17;;;;;;;12.03;4.70;;;18.50;63.50;;;;;;5006352;28;20434;-74
2023/10/13 02:05:53;;;;;;;12.20;4.83;;;18.60;63.40;;;;;;5002586;28;20521;-75
2023/10/13 02:08:24;;;;;;;8.90;4.73;;;18.60;63.40;;;;;;5005581;28;20815;-75
2023/10/13 02:10:55;;;;;;;12.33;4.73;;;18.50;63.50;;;;;;5010290;28;20460;-74
2023/10/13 02:13:23;;;;;;;12.47;5.00;;;18.40;63.70;;;;;;5006937;28;20426;-74
2023/10/13 02:15:52;;;;;;;11.07;5.10;;;18.40;63.70;;;;;;5012273;28;20509;-74
2023/10/13 02:18:41;;;;;;;10.43;5.00;;;18.40;63.80;;;;;;5014963;28;20509;-76
2023/10/13 02:21:12;;;;;;;13.87;5.43;;;18.40;63.90;;;;;;5009597;28;20481;-75
2023/10/13 02:23:43;;;;;;;11.03;4.63;;;18.30;64.10;;;;;;5011779;28;20422;-74
2023/10/13 02:26:21;;;;;;;9.63;5.43;;;18.30;64.20;;;;;;5001108;28;21303;-76
2023/10/13 02:28:52;;;;;;;8.00;4.33;;;18.20;64.50;;;;;;5000078;28;21248;-76
2023/10/13 02:31:19;;;;;;;10.10;5.00;;;18.10;64.70;;;;;;5004316;28;20514;-76
2023/10/13 02:33:45;;;;;;;14.57;5.37;;;18.10;64.80;;;;;;5001925;28;20423;-74
2023/10/13 02:36:19;;;;;;;8.33;4.73;;;18.10;65.00;;;;;;5011087;28;20471;-74
2023/10/13 02:38:48;;;;;;;10.23;4.77;;;18.00;65.10;;;;;;5010117;28;20187;-75
2023/10/13 02:41:27;;;;;;;7.43;4.10;;;18.00;65.30;;;;;;5004839;28;20477;-74
2023/10/13 02:43:54;;;;;;;11.13;5.20;;;17.90;65.40;;;;;;5007046;28;20855;-77
2023/10/13 02:46:23;;;;;;;14.00;5.00;;;18.00;65.40;;;;;;5003077;28;20488;-76
2023/10/13 02:48:53;;;;;;;10.30;4.73;;;17.90;65.40;;;;;;5003928;28;20950;-77
2023/10/13 02:51:25;;;;;;;10.00;5.27;;;17.90;65.40;;;;;;5006620;28;20434;-76
2023/10/13 02:53:52;;;;;;;9.97;4.40;;;17.90;65.60;;;;;;5009054;28;21112;-76
2023/10/13 02:56:22;;;;;;;9.10;4.77;;;17.90;65.60;;;;;;5004258;28;20529;-75
2023/10/13 02:58:56;;;;;;;10.77;5.50;;;17.90;65.70;;;;;;5013194;28;20492;-75
2023/10/13 03:01:27;;;;;;;10.60;4.63;;;17.80;65.70;;;;;;5009405;28;20553;-75
2023/10/13 03:03:58;;;;;;;13.77;5.60;;;17.70;65.80;;;;;;5007307;28;20622;-75
2023/10/13 03:06:32;;;;;;;10.50;4.87;;;17.70;66.00;;;;;;5004286;28;20852;-76
2023/10/13 03:09:13;;;;;;;8.30;4.80;;;17.70;66.00;;;;;;5003566;28;20474;-75
2023/10/13 03:11:42;;;;;;;9.23;5.17;;;17.60;66.00;;;;;;5004847;28;20434;-75
2023/10/13 03:14:15;;;;;;;14.00;5.40;;;17.50;66.10;;;;;;5012590;28;20447;-76
2023/10/13 03:16:41;;;;;;;13.80;5.40;;;17.60;66.10;;;;;;5002595;28;20578;-75
2023/10/13 03:19:09;;;;;;;16.37;4.97;;;17.60;66.00;;;;;;4996335;28;20435;-75
2023/10/13 03:21:36;;;;;;;9.77;4.93;;;17.60;66.10;;;;;;5002559;28;20183;-75
2023/10/13 03:24:07;;;;;;;9.73;4.80;;;17.50;66.30;;;;;;4995989;28;20520;-75
2023/10/13 03:26:37;;;;;;;9.70;4.83;;;17.40;66.40;;;;;;5008350;28;20896;-75
2023/10/13 03:29:08;;;;;;;10.37;4.83;;;17.40;66.40;;;;;;4995421;28;20501;-75
2023/10/13 03:31:37;;;;;;;12.33;5.23;;;17.40;66.30;;;;;;5005846;28;20441;-75
2023/10/13 03:34:04;;;;;;;10.10;4.80;;;17.50;66.10;;;;;;4995896;28;20449;-76
2023/10/13 03:39:14;;;;;;;9.83;5.33;;;17.50;66.00;;;;;;5002619;28;20437;-76
2023/10/13 03:41:40;;;;;;;8.67;4.70;;;17.60;66.00;;;;;;5001719;28;20916;-75
2023/10/13 03:44:13;;;;;;;10.23;4.60;;;17.50;65.80;;;;;;5001337;28;20183;-77
2023/10/13 03:46:42;;;;;;;12.07;5.77;;;17.50;66.00;;;;;;4996685;28;20966;-75
2023/10/13 03:49:12;;;;;;;10.33;4.80;;;17.50;66.00;;;;;;5002782;28;20530;-75
2023/10/13 03:51:39;;;;;;;8.03;4.93;;;17.50;65.80;;;;;;5000987;28;20716;-75
2023/10/13 03:54:08;;;;;;;9.53;5.37;;;17.50;66.00;;;;;;5003980;28;20433;-75
2023/10/13 03:59:09;;;;;;;8.50;4.33;;;17.40;66.60;;;;;;5009032;28;20444;-75
2023/10/13 04:04:12;;;;;;;12.73;5.53;;;17.20;66.70;;;;;;5014217;28;20430;-74
2023/10/13 04:17:15;;;;;;;7.60;4.97;;;17.00;67.00;;;;;;5010335;28;20468;-76
2023/10/13 04:30:52;;;;;;;10.33;4.87;;;16.90;67.20;;;;;;5003177;28;20477;-74
2023/10/13 04:36:14;;;;;;;9.87;5.10;;;16.90;67.20;;;;;;5005539;28;20838;-75
2023/10/13 04:38:56;;;;;;;10.80;5.20;;;16.90;67.30;;;;;;5006107;28;20425;-75
2023/10/13 04:41:36;;;;;;;12.03;5.43;;;16.80;67.30;;;;;;5009031;28;20901;-75
2023/10/13 04:44:04;;;;;;;12.77;5.63;;;16.90;67.30;;;;;;5001045;28;20984;-76
2023/10/13 04:46:54;;;;;;;11.13;5.03;;;16.80;67.20;;;;;;5007909;28;20444;-75
2023/10/13 04:49:28;;;;;;;12.17;5.03;;;16.90;67.20;;;;;;5003990;28;20417;-73
2023/10/13 04:51:59;;;;;;;14.00;5.57;;;16.90;67.00;;;;;;5006042;28;20456;-71
2023/10/13 04:54:45;;;;;;;11.97;5.40;;;16.90;67.30;;;;;;5010874;28;20413;-72
2023/10/13 05:05:21;;;;;;;9.00;4.33;;;16.70;67.60;;;;;;5010569;28;20422;-71
2023/10/13 05:52:06;;;;;;;10.07;5.37;;;17.10;66.70;;;;;;5006665;28;20475;-74
2023/10/13 06:30:13;;;;;;;9.93;5.57;;;17.70;65.60;;;;;;5006529;28;20410;-75
2023/10/13 06:32:41;;;;;;;13.00;5.53;;;17.70;65.60;;;;;;5007398;28;20926;-76
2023/10/13 06:35:18;;;;;;;16.47;5.97;;;17.80;65.40;;;;;;5006031;28;20180;-75
2023/10/13 06:37:44;;;;;;;13.43;4.83;;;17.90;65.00;;;;;;5002771;28;20439;-75
2023/10/13 06:40:25;;;;;;;13.20;5.43;;;17.80;65.30;;;;;;4998100;28;20463;-74
2023/10/13 06:42:53;;;;;;;18.30;6.47;;;17.90;65.70;;;;;;5004773;28;20425;-76
2023/10/13 06:45:20;;;;;;;12.50;5.70;;;17.90;65.40;;;;;;4995717;28;20448;-74
2023/10/13 06:47:46;;;;;;;13.53;5.93;;;18.10;65.10;;;;;;5006675;28;20427;-75
2023/10/13 06:50:16;;;;;;;14.70;5.77;;;18.10;65.30;;;;;;5000928;28;20422;-75
2023/10/13 06:52:42;;;;;;;11.50;5.20;;;18.20;64.80;;;;;;5004580;28;20294;-76
2023/10/13 06:55:23;;;;;;;12.30;6.40;;;18.20;64.70;;;;;;4996280;28;20440;-76
2023/10/13 06:57:51;;;;;;;31.77;5.87;;;18.30;64.40;;;;;;5004311;28;20434;-75
2023/10/13 07:00:27;;;;;;;11.90;5.70;;;18.20;63.90;;;;;;5004726;28;20860;-74
2023/10/13 07:02:53;;;;;;;13.17;5.40;;;18.30;64.10;;;;;;5006811;28;20427;-74
2023/10/13 07:05:19;;;;;;;15.80;5.83;;;18.30;64.10;;;;;;5009794;28;20481;-75
2023/10/13 07:07:45;;;;;;;13.20;5.67;;;18.40;63.70;;;;;;5012360;28;20189;-75
2023/10/13 07:10:12;;;;;;;10.00;5.70;;;18.50;63.40;;;;;;5015049;28;20493;-74
2023/10/13 07:12:43;;;;;;;12.13;5.60;;;18.60;62.80;;;;;;5006027;28;20924;-75
2023/10/13 07:15:19;;;;;;;13.27;5.50;;;18.70;62.50;;;;;;5004206;28;20441;-74
2023/10/13 07:17:54;;;;;;;12.40;4.50;;;18.70;61.90;;;;;;5000926;28;20426;-75
2023/10/13 07:20:33;;;;;;;13.90;5.53;;;18.70;62.00;;;;;;5005945;28;21073;-75
2023/10/13 07:23:05;;;;;;;12.67;4.40;;;18.90;61.30;;;;;;4997183;28;20419;-75
2023/10/13 07:25:38;;;;;;;12.13;5.40;;;18.90;60.90;;;;;;5019901;28;20985;-75
2023/10/13 07:28:15;;;;;;;11.17;5.50;;;19.00;60.90;;;;;;5001278;28;20442;-75
2023/10/13 07:31:08;;;;;;;10.27;4.80;;;19.00;60.60;;;;;;5002416;28;20778;-75
2023/10/13 07:33:34;;;;;;;10.70;4.67;;;19.10;60.10;;;;;;5003317;28;20429;-75
2023/10/13 07:38:49;;;;;;;11.83;4.87;;;19.30;59.60;;;;;;5003073;28;20178;-75
2023/10/13 07:41:54;;;;;;;11.30;5.00;;;19.50;59.20;;;;;;4998842;28;20469;-75
2023/10/13 07:44:24;;;;;;;11.90;4.47;;;19.60;58.70;;;;;;4960569;28;20438;-74
2023/10/13 07:46:59;;;;;;;9.90;5.00;;;19.60;58.40;;;;;;4958515;28;20469;-74
2023/10/13 07:49:30;;;;;;;9.13;5.10;;;19.70;57.80;;;;;;4962129;28;20443;-74
2023/10/13 07:54:49;;;;;;;12.33;4.97;;;20.00;56.90;;;;;;4955758;28;20427;-75
2023/10/13 07:57:15;;;;;;;10.43;4.43;;;20.10;56.60;;;;;;4950978;28;20468;-75
2023/10/13 07:59:50;;;;;;;10.37;4.60;;;20.20;56.60;;;;;;4955676;28;20492;-75
2023/10/13 08:02:48;;;;;;;12.70;4.90;;;20.30;56.10;;;;;;4960104;28;20442;-75
2023/10/13 08:05:04;;;;;;;12.43;4.60;;;20.40;56.00;;;;;;4948596;28;20519;-73
2023/10/13 08:07:30;;;;;;;12.43;4.80;;;20.50;55.70;;;;;;4952165;28;20444;-74
2023/10/13 08:09:59;;;;;;;7.23;4.13;;;20.50;56.00;;;;;;4954055;28;20938;-74
2023/10/13 08:12:25;;;;;;;13.87;4.80;;;20.50;55.70;;;;;;4959795;28;20447;-74
2023/10/13 08:15:09;;;;;;;10.43;4.47;;;20.70;55.30;;;;;;4963292;28;20470;-74
2023/10/13 08:17:35;;;;;;;14.23;5.13;;;20.80;55.00;;;;;;4950545;28;20466;-75
2023/10/13 08:20:11;;;;;;;10.03;4.27;;;20.90;55.00;;;;;;4998923;28;20560;-73
2023/10/13 08:22:38;;;;;;;7.00;4.30;;;20.90;55.20;;;;;;4999649;28;20629;-75
2023/10/13 08:26:13;;;;;;;13.53;4.17;;;21.00;55.30;;;;;;4997511;28;20414;-75
2023/10/13 08:30:55;;;;;;;12.80;4.70;;;21.20;55.60;;;;;;5004296;28;21018;-74
2023/10/13 08:33:26;;;;;;;19.03;4.90;;;21.10;55.70;;;;;;5000895;28;20436;-76
2023/10/13 08:35:56;;;;;;;13.63;4.30;;;21.20;55.60;;;;;;5000364;28;20546;-74
2023/10/13 08:38:28;;;;;;;14.00;4.60;;;21.30;55.30;;;;;;4999210;28;20425;-75
2023/10/13 08:44:03;;;;;;;11.53;4.33;;;21.60;53.60;;;;;;5007114;28;20503;-74
2023/10/13 08:46:38;;;;;;;12.97;4.00;;;21.60;52.80;;;;;;5003262;28;20851;-75
2023/10/13 08:49:29;;;;;;;6.90;4.00;;;21.80;51.70;;;;;;5008439;28;20848;-74
2023/10/13 08:52:05;;;;;;;12.30;4.63;;;22.00;51.40;;;;;;5007082;28;20432;-74
2023/10/13 08:54:38;;;;;;;9.47;3.77;;;22.20;50.20;;;;;;5012245;28;20442;-75
2023/10/13 08:57:19;;;;;;;8.43;4.17;;;22.30;49.90;;;;;;5002186;28;20472;-74
2023/10/13 08:59:53;;;;;;;11.03;4.70;;;22.40;49.40;;;;;;5009375;28;20477;-73
2023/10/13 09:02:22;;;;;;;7.60;3.87;;;22.50;48.90;;;;;;5011861;28;20426;-74
2023/10/13 09:04:59;;;;;;;10.10;3.90;;;22.60;48.10;;;;;;5004461;28;21001;-75
2023/10/13 09:07:25;;;;;;;8.33;3.77;;;22.60;48.50;;;;;;5011247;28;20475;-74
2023/10/13 09:12:19;;;;;;;13.70;4.07;;;22.90;47.50;;;;;;5011548;28;20187;-74
2023/10/13 09:14:58;;;;;;;9.30;3.80;;;23.00;47.50;;;;;;5009960;28;20443;-74
2023/10/13 09:17:35;;;;;;;9.40;4.53;;;23.10;46.60;;;;;;5020364;28;20818;-75
2023/10/13 09:23:07;;;;;;;7.80;3.63;;;23.40;45.50;;;;;;5011415;28;20837;-73
2023/10/13 09:25:38;;;;;;;12.00;3.97;;;23.50;45.30;;;;;;5009039;28;20552;-74
2023/10/13 09:28:18;;;;;;;12.63;3.63;;;23.70;44.60;;;;;;5004154;28;20467;-75
2023/10/13 09:30:49;;;;;;;7.60;3.87;;;23.70;43.90;;;;;;5011213;28;20498;-75
2023/10/13 09:36:06;;;;;;;9.97;3.70;;;24.00;42.30;;;;;;5006679;28;20461;-74
2023/10/13 09:38:36;;;;;;;9.60;3.90;;;24.00;42.40;;;;;;5009112;28;20813;-75
2023/10/13 09:43:51;;;;;;;8.83;3.57;;;24.10;42.30;;;;;;5012086;28;20425;-74
2023/10/13 09:46:23;;;;;;;10.40;4.60;;;24.20;42.30;;;;;;5007785;28;20976;-74
2023/10/13 09:49:04;;;;;;;11.20;3.67;;;24.20;42.20;;;;;;5006910;28;20780;-75
2023/10/13 09:51:31;;;;;;;9.00;4.10;;;24.20;42.30;;;;;;5013544;28;20429;-75
2023/10/13 09:54:09;;;;;;;7.27;3.33;;;24.30;42.20;;;;;;5015696;28;20460;-73
2023/10/13 09:56:51;;;;;;;13.03;4.23;;;24.40;41.90;;;;;;5002223;28;20841;-73
2023/10/13 09:59:34;;;;;;;7.40;3.53;;;24.50;42.00;;;;;;5010470;28;20427;-75
2023/10/13 10:02:08;;;;;;;13.40;3.43;;;24.50;41.90;;;;;;4996908;28;20898;-74
2023/10/13 10:04:51;;;;;;;12.07;4.27;;;24.60;41.50;;;;;;5002240;28;20424;-75
2023/10/13 10:07:32;;;;;;;9.70;3.87;;;24.70;41.90;;;;;;5003874;28;20445;-74
2023/10/13 10:10:00;;;;;;;9.30;3.90;;;24.90;41.80;;;;;;5002784;28;20511;-74
2023/10/13 10:12:47;;;;;;;9.63;3.90;;;25.00;41.20;;;;;;5000706;28;20860;-75
2023/10/13 10:15:33;;;;;;;13.73;3.93;;;25.00;41.20;;;;;;4997593;28;20548;-74
2023/10/13 10:18:00;;;;;;;8.90;3.50;;;25.20;41.10;;;;;;5003335;28;20804;-75
2023/10/13 10:20:39;;;;;;;11.60;4.67;;;25.30;40.20;;;;;;5004539;28;20487;-75
2023/10/13 10:23:05;;;;;;;7.43;4.00;;;25.60;39.60;;;;;;5004604;28;20431;-74
2023/10/13 10:25:35;;;;;;;12.80;5.07;;;25.90;38.70;;;;;;4999323;28;20548;-74
2023/10/13 10:28:05;;;;;;;8.43;3.90;;;26.10;38.80;;;;;;4998588;28;20418;-74
2023/10/13 10:30:35;;;;;;;8.37;4.37;;;26.20;37.90;;;;;;5010248;28;20435;-75
2023/10/13 10:33:12;;;;;;;8.43;3.33;;;26.10;38.20;;;;;;5004418;28;20500;-75
2023/10/13 10:35:40;;;;;;;14.80;4.03;;;26.20;38.20;;;;;;5005438;28;20489;-74
2023/10/13 10:38:24;;;;;;;7.53;3.60;;;26.50;37.20;;;;;;5006386;28;20936;-73
2023/10/13 10:40:56;;;;;;;8.57;3.63;;;26.80;36.20;;;;;;5003479;28;20475;-74
2023/10/13 10:43:25;;;;;;;13.53;4.17;;;26.70;36.30;;;;;;5009643;28;20430;-75
2023/10/13 10:45:51;;;;;;;11.10;3.90;;;26.80;36.30;;;;;;5001808;28;20469;-74
2023/10/13 10:48:18;;;;;;;13.30;4.17;;;26.70;36.70;;;;;;5003924;28;20448;-74
2023/10/13 10:50:53;;;;;;;7.33;4.03;;;26.60;36.80;;;;;;5003020;28;20614;-74
2023/10/13 10:53:22;;;;;;;11.77;3.73;;;26.70;37.00;;;;;;4996816;28;20431;-74
2023/10/13 10:55:48;;;;;;;11.37;4.27;;;27.00;36.40;;;;;;5002567;28;20551;-74
2023/10/13 10:58:28;;;;;;;14.27;4.70;;;27.40;35.70;;;;;;4997317;28;20834;-74
2023/10/13 11:01:10;;;;;;;6.83;3.70;;;27.70;35.20;;;;;;5004135;28;21073;-74
2023/10/13 11:03:42;;;;;;;11.23;4.30;;;27.90;35.50;;;;;;5005888;28;20781;-74
2023/10/13 11:06:17;;;;;;;12.80;4.20;;;28.00;34.70;;;;;;5006635;28;20548;-75
2023/10/13 11:08:43;;;;;;;11.33;4.23;;;27.70;34.90;;;;;;5002641;28;20432;-74
2023/10/13 11:11:17;;;;;;;14.87;5.17;;;27.20;35.70;;;;;;5001743;28;20420;-74
2023/10/13 11:14:13;;;;;;;11.00;4.03;;;27.20;35.70;;;;;;5011850;28;20413;-75
2023/10/13 11:16:50;;;;;;;5.50;3.40;;;27.30;35.50;;;;;;5003979;28;20484;-74
2023/10/13 11:19:25;;;;;;;12.47;4.40;;;27.40;35.70;;;;;;5009476;28;20437;-74
2023/10/13 11:21:53;;;;;;;10.77;3.90;;;27.70;35.10;;;;;;5015525;28;20913;-74
2023/10/13 11:24:21;;;;;;;7.87;3.77;;;27.90;34.70;;;;;;5012570;28;20414;-74
2023/10/13 11:26:52;;;;;;;10.07;4.47;;;27.80;34.70;;;;;;5002433;28;20469;-74
2023/10/13 11:29:19;;;;;;;11.13;5.73;;;27.80;34.50;;;;;;5004563;28;20481;-74
2023/10/13 11:31:58;;;;;;;11.27;3.90;;;27.90;34.50;;;;;;5003650;28;20417;-75
2023/10/13 11:34:24;;;;;;;7.67;3.80;;;27.80;34.80;;;;;;5005625;28;20456;-74
2023/10/13 11:36:51;;;;;;;13.23;4.20;;;27.90;34.80;;;;;;5016318;28;20533;-72
2023/10/13 11:39:25;;;;;;;12.97;4.30;;;28.10;34.40;;;;;;5006812;28;20426;-73
2023/10/13 11:41:54;;;;;;;14.30;4.20;;;28.20;33.70;;;;;;4999692;28;20431;-75
2023/10/13 11:49:18;;;;;;;11.20;4.50;;;28.20;33.90;;;;;;5001882;28;20453;-75
2023/10/13 11:51:48;;;;;;;7.30;3.43;;;28.00;33.90;;;;;;5003826;28;20996;-76
2023/10/13 11:54:22;;;;;;;6.57;4.00;;;28.00;34.00;;;;;;4997440;28;20456;-74
2023/10/13 11:56:49;;;;;;;9.90;4.63;;;28.00;34.00;;;;;;5011602;28;20472;-75
2023/10/13 11:59:18;;;;;;;6.90;3.57;;;28.10;34.00;;;;;;5000974;28;20425;-75
2023/10/13 12:04:48;;;;;;;10.20;3.70;;;28.00;34.30;;;;;;4999489;28;20785;-75
2023/10/13 12:12:26;;;;;;;13.60;4.20;;;28.50;33.60;;;;;;5003383;28;20917;-74
2023/10/13 12:14:52;;;;;;;8.40;4.40;;;28.80;32.80;;;;;;5009183;28;20439;-74
2023/10/13 12:17:24;;;;;;;13.33;3.80;;;28.90;32.10;;;;;;5009826;28;20457;-74
2023/10/13 12:19:52;;;;;;;9.67;4.10;;;28.80;32.50;;;;;;5007584;28;20491;-74
2023/10/13 12:22:26;;;;;;;8.70;3.90;;;28.80;32.40;;;;;;5002154;28;20436;-75
2023/10/13 12:24:55;;;;;;;9.23;3.70;;;28.70;32.10;;;;;;5003020;28;21185;-75
2023/10/13 12:27:26;;;;;;;11.10;3.80;;;28.70;32.10;;;;;;5005950;28;20446;-76
2023/10/13 12:29:53;;;;;;;9.07;4.70;;;28.50;32.30;;;;;;5008132;28;20833;-73
2023/10/13 12:32:26;;;;;;;13.80;4.17;;;28.70;32.70;;;;;;5004024;28;20842;-74
2023/10/13 12:35:16;;;;;;;8.80;4.27;;;28.80;32.30;;;;;;5006415;28;20433;-74
2023/10/13 12:54:05;;;;;;;9.63;4.13;;;29.80;30.70;;;;;;5003910;28;20425;-75
2023/10/13 12:56:31;;;;;;;7.80;3.87;;;29.60;31.10;;;;;;5005295;28;20457;-73
2023/10/13 12:58:57;;;;;;;11.23;4.10;;;29.90;30.80;;;;;;5004170;28;20429;-74
2023/10/13 13:01:25;;;;;;;8.63;4.60;;;30.10;30.50;;;;;;5012859;28;20217;-73
2023/10/13 13:03:55;;;;;;;12.53;3.60;;;30.30;29.80;;;;;;5009963;28;20230;-75
2023/10/13 13:06:25;;;;;;;7.43;3.70;;;30.30;29.60;;;;;;5004655;28;20505;-74
2023/10/13 13:09:01;;;;;;;8.50;4.10;;;30.10;29.80;;;;;;5009148;28;20432;-74
2023/10/13 13:11:29;;;;;;;6.17;3.90;;;29.90;29.90;;;;;;5011142;28;20428;-75
2023/10/13 13:13:57;;;;;;;12.00;3.90;;;29.90;30.30;;;;;;5009957;28;20827;-74
2023/10/13 13:16:30;;;;;;;6.77;3.60;;;30.10;30.10;;;;;;5006807;28;20548;-75
2023/10/13 13:18:55;;;;;;;14.93;4.00;;;30.20;29.80;;;;;;5005541;28;20426;-74
2023/10/13 13:21:24;;;;;;;8.50;4.07;;;30.10;30.10;;;;;;5014661;28;20496;-74
2023/10/13 13:23:56;;;;;;;6.20;3.43;;;30.10;29.30;;;;;;5012663;28;20194;-73
2023/10/13 13:26:22;;;;;;;8.70;4.77;;;30.20;29.40;;;;;;5023164;28;20636;-74
2023/10/13 13:28:51;;;;;;;9.67;3.83;;;30.30;28.70;;;;;;5017836;28;20433;-74
2023/10/13 13:31:26;;;;;;;7.70;3.90;;;30.20;28.50;;;;;;5012868;28;20937;-73
2023/10/13 13:33:53;;;;;;;8.07;3.90;;;30.10;28.60;;;;;;5005646;28;20448;-74
2023/10/13 13:36:19;;;;;;;10.27;3.73;;;30.20;28.60;;;;;;5005036;28;20460;-75
2023/10/13 13:38:54;;;;;;;10.23;4.40;;;30.20;28.20;;;;;;5004815;28;20532;-74
2023/10/13 13:41:20;;;;;;;9.50;4.10;;;30.30;28.10;;;;;;5004999;28;20494;-75
2023/10/13 13:46:17;;;;;;;8.70;3.60;;;30.10;28.10;;;;;;5006829;28;20468;-74
2023/10/13 13:48:43;;;;;;;7.80;3.50;;;30.00;28.30;;;;;;5000429;28;20588;-75
2023/10/13 13:51:15;;;;;;;13.13;3.90;;;30.00;28.10;;;;;;4998387;28;20524;-73
2023/10/13 13:53:50;;;;;;;5.83;3.30;;;29.90;28.20;;;;;;5003403;28;20690;-75
2023/10/13 13:56:16;;;;;;;9.40;3.40;;;29.80;28.40;;;;;;5005280;28;20468;-74
2023/10/13 13:58:45;;;;;;;8.93;3.20;;;29.90;28.20;;;;;;5007116;28;20494;-74
2023/10/13 14:01:12;;;;;;;10.13;4.40;;;29.90;28.40;;;;;;4996381;28;20404;-75
2023/10/13 14:03:44;;;;;;;7.57;3.33;;;29.80;28.80;;;;;;5004578;28;20424;-74
2023/10/13 14:06:29;;;;;;;7.70;3.73;;;29.90;28.80;;;;;;5003865;28;20465;-74
2023/10/13 14:09:44;;;;;;;12.10;4.10;;;29.90;28.40;;;;;;5001877;28;20517;-74
2023/10/13 14:14:28;;;;;;;7.80;3.87;;;29.50;28.40;;;;;;5002350;28;20491;-73
2023/10/13 14:17:02;;;;;;;6.60;3.90;;;29.20;28.50;;;;;;5000093;28;20470;-74
2023/10/13 14:19:28;;;;;;;8.73;3.37;;;29.10;28.70;;;;;;5003155;28;20293;-75
2023/10/13 14:21:57;;;;;;;6.37;3.67;;;29.10;28.80;;;;;;5011250;28;20523;-74
2023/10/13 14:24:33;;;;;;;6.40;3.50;;;29.00;28.70;;;;;;5002546;28;20517;-75
2023/10/13 14:27:07;;;;;;;7.80;3.50;;;29.20;28.80;;;;;;5001624;28;20496;-75
2023/10/13 14:29:34;;;;;;;8.63;4.00;;;29.40;28.80;;;;;;5001130;28;20795;-75
2023/10/13 14:31:59;;;;;;;7.20;3.67;;;29.50;28.40;;;;;;5003445;28;21003;-74
2023/10/13 14:34:26;;;;;;;11.83;4.00;;;29.40;28.40;;;;;;5006887;28;20436;-73
2023/10/13 14:36:54;;;;;;;10.17;3.87;;;29.30;28.50;;;;;;4998523;28;20595;-74
2023/10/13 14:39:20;;;;;;;8.27;3.80;;;29.20;28.50;;;;;;5001668;28;20596;-73
2023/10/13 14:41:47;;;;;;;13.67;3.40;;;29.10;28.30;;;;;;5001055;28;20515;-72
2023/10/13 14:44:14;;;;;;;6.17;3.23;;;29.10;28.50;;;;;;5001353;28;20421;-75
2023/10/13 14:46:39;;;;;;;6.50;3.40;;;29.00;27.80;;;;;;4998698;28;20577;-74
2023/10/13 14:49:06;;;;;;;6.87;3.40;;;28.80;28.20;;;;;;5005290;28;20492;-75
2023/10/13 14:51:32;;;;;;;7.10;3.20;;;28.80;28.60;;;;;;5004877;28;20246;-74
2023/10/13 14:53:59;;;;;;;10.03;3.70;;;28.90;28.20;;;;;;5008627;28;20417;-75
2023/10/13 14:56:27;;;;;;;11.90;3.90;;;28.80;28.30;;;;;;5002313;28;20973;-76
2023/10/13 14:58:53;;;;;;;11.10;3.43;;;28.80;28.00;;;;;;5011166;28;20433;-74
2023/10/13 15:01:21;;;;;;;7.10;3.30;;;28.80;27.70;;;;;;5003384;28;20470;-75
2023/10/13 15:03:48;;;;;;;6.43;3.57;;;28.70;27.40;;;;;;5008049;28;20513;-74
2023/10/13 15:06:25;;;;;;;5.50;2.83;;;28.70;27.20;;;;;;5003527;28;20460;-73
2023/10/13 15:08:54;;;;;;;10.77;3.50;;;28.80;27.10;;;;;;5006981;28;20424;-76
2023/10/13 15:11:21;;;;;;;6.13;3.20;;;28.80;27.10;;;;;;5001316;28;20418;-76
2023/10/13 15:13:50;;;;;;;6.70;2.97;;;28.80;27.10;;;;;;5007677;28;20417;-78
2023/10/13 15:16:16;;;;;;;5.17;3.00;;;28.80;27.00;;;;;;5007588;28;20467;-73
2023/10/13 15:18:44;;;;;;;5.23;3.47;;;28.90;26.90;;;;;;5014629;28;20425;-74
2023/10/13 15:21:10;;;;;;;7.30;3.43;;;29.00;26.90;;;;;;5004488;28;20998;-75
2023/10/13 15:23:42;;;;;;;7.20;3.33;;;29.00;26.70;;;;;;5007544;28;20452;-73
2023/10/13 15:26:14;;;;;;;6.37;3.00;;;29.10;26.50;;;;;;4992053;28;20351;-75
2023/10/13 15:28:49;;;;;;;4.50;2.80;;;29.10;26.90;;;;;;4998924;28;20815;-76
2023/10/13 15:31:37;;;;;;;6.07;3.03;;;29.00;27.00;;;;;;4999587;28;20421;-74
2023/10/13 15:34:12;;;;;;;9.40;3.70;;;28.90;27.30;;;;;;4997502;28;20504;-73
2023/10/13 15:36:40;;;;;;;7.67;3.90;;;28.80;26.90;;;;;;4997006;28;20969;-73
2023/10/13 15:39:08;;;;;;;9.00;3.27;;;28.60;27.10;;;;;;4998142;28;20505;-72
2023/10/13 15:41:33;;;;;;;7.50;2.90;;;28.60;27.20;;;;;;4999661;28;20562;-73
2023/10/13 15:43:59;;;;;;;7.57;3.20;;;28.50;27.20;;;;;;4995741;28;20918;-72
2023/10/13 15:46:25;;;;;;;9.67;3.00;;;28.50;27.60;;;;;;5001217;28;20641;-72
2023/10/13 15:48:52;;;;;;;9.90;3.87;;;28.40;27.40;;;;;;5017879;28;20537;-72
2023/10/13 15:51:19;;;;;;;5.73;2.83;;;28.40;27.40;;;;;;5004492;28;20432;-71
2023/10/13 15:53:47;;;;;;;8.00;3.20;;;28.30;27.50;;;;;;5008509;28;20425;-72
2023/10/13 15:56:17;;;;;;;6.57;3.23;;;28.10;27.50;;;;;;5004817;28;20464;-72
2023/10/13 15:58:46;;;;;;;7.13;3.50;;;28.10;27.60;;;;;;5013432;28;20420;-72
2023/10/13 16:01:15;;;;;;;4.23;2.53;;;28.00;27.30;;;;;;5009383;28;20535;-72
2023/10/13 16:03:43;;;;;;;4.10;2.30;;;28.00;27.30;;;;;;5007450;28;20431;-72
2023/10/13 16:06:10;;;;;;;6.57;2.83;;;27.90;27.70;;;;;;5003746;28;20538;-72
2023/10/13 16:08:37;;;;;;;6.47;2.90;;;27.80;28.30;;;;;;5010745;28;21014;-72
2023/10/13 16:11:07;;;;;;;6.47;3.10;;;27.70;27.80;;;;;;5002728;28;20457;-72